Terminal Aerodrome Forecast
Issued by NWS

Home | Current Version | Previous Version | Graphics & Text | Print | Product List | Glossary Off
Versions: 1 2 3 4 5 6 7 8 9 10 11 12 13 14 15 16 17 18 19 20 21 22

000
FTUS41 KCLE 280902 AAB
TAFFDY
TAF AMD
KFDY 280902Z 2809/2906 34003KT 6SM BR SCT250
      TEMPO 2809/2812 2SM BR
     FM281300 04006KT P6SM FEW035
     FM281700 08008KT P6SM SCT040
     FM290000 08007KT P6SM FEW060=

USA.gov is the U.S. government's official web portal to all federal, state and local government web resources and services.